sensor_id;sensor_type;location;lat;lon;timestamp;P1;durP1;ratioP1;P2;durP2;ratioP2
1014;SDS011;8170;48.118;11.628;2022-11-02T00:21:09;6.90;;;5.05;;
1014;SDS011;8170;48.118;11.628;2022-11-02T00:22:19;8.77;;;7.35;;
1014;SDS011;8170;48.118;11.628;2022-11-02T00:23:21;9.30;;;5.53;;
1014;SDS011;8170;48.118;11.628;2022-11-02T00:24:28;6.95;;;5.30;;
1014;SDS011;8170;48.118;11.628;2022-11-02T00:25:43;11.90;;;6.47;;
1014;SDS011;8170;48.118;11.628;2022-11-02T00:26:49;7.72;;;6.28;;
1014;SDS011;8170;48.118;11.628;2022-11-02T00:27:51;6.82;;;5.20;;
1014;SDS011;8170;48.118;11.628;2022-11-02T00:28:54;7.45;;;5.30;;
1014;SDS011;8170;48.118;11.628;2022-11-02T00:29:57;9.07;;;5.88;;
1014;SDS011;8170;48.118;11.628;2022-11-02T00:31:01;8.77;;;6.05;;
1014;SDS011;8170;48.118;11.628;2022-11-02T00:32:03;8.30;;;5.47;;
1014;SDS011;8170;48.118;11.628;2022-11-02T00:33:07;6.40;;;5.70;;
1014;SDS011;8170;48.118;11.628;2022-11-02T00:34:09;8.35;;;5.68;;
1014;SDS011;8170;48.118;11.628;2022-11-02T00:35:13;7.78;;;6.22;;
1014;SDS011;8170;48.118;11.628;2022-11-02T00:36:17;6.97;;;5.68;;
1014;SDS011;8170;48.118;11.628;2022-11-02T00:37:20;6.82;;;5.57;;
1014;SDS011;8170;48.118;11.628;2022-11-02T00:38:24;8.68;;;5.32;;
1014;SDS011;8170;48.118;11.628;2022-11-02T00:39:26;9.27;;;6.63;;
1014;SDS011;8170;48.118;11.628;2022-11-02T00:40:29;7.90;;;5.93;;
1014;SDS011;8170;48.118;11.628;2022-11-02T00:41:33;8.00;;;6.80;;
1014;SDS011;8170;48.118;11.628;2022-11-02T00:42:35;7.20;;;5.00;;
1014;SDS011;8170;48.118;11.628;2022-11-02T00:43:38;11.30;;;6.72;;
1014;SDS011;8170;48.118;11.628;2022-11-02T00:44:40;8.30;;;5.20;;
1014;SDS011;8170;48.118;11.628;2022-11-02T00:45:45;6.10;;;5.50;;
1014;SDS011;8170;48.118;11.628;2022-11-02T00:46:47;8.43;;;6.57;;
1014;SDS011;8170;48.118;11.628;2022-11-02T00:47:51;7.88;;;5.65;;
1014;SDS011;8170;48.118;11.628;2022-11-02T00:48:53;6.15;;;5.40;;
1014;SDS011;8170;48.118;11.628;2022-11-02T00:49:56;8.20;;;5.85;;
1014;SDS011;8170;48.118;11.628;2022-11-02T00:51:00;7.43;;;5.40;;
1014;SDS011;8170;48.118;11.628;2022-11-02T00:52:08;8.05;;;5.47;;
1014;SDS011;8170;48.118;11.628;2022-11-02T00:53:10;7.97;;;6.20;;
1014;SDS011;8170;48.118;11.628;2022-11-02T00:54:19;7.13;;;5.22;;
1014;SDS011;8170;48.118;11.628;2022-11-02T00:55:29;9.45;;;6.18;;
1014;SDS011;8170;48.118;11.628;2022-11-02T00:56:36;8.93;;;5.57;;
1014;SDS011;8170;48.118;11.628;2022-11-02T00:57:39;9.68;;;5.75;;
1014;SDS011;8170;48.118;11.628;2022-11-02T00:58:43;6.03;;;5.18;;
1014;SDS011;8170;48.118;11.628;2022-11-02T00:59:45;6.65;;;5.15;;
1014;SDS011;8170;48.118;11.628;2022-11-02T01:00:50;6.18;;;5.53;;
1014;SDS011;8170;48.118;11.628;2022-11-02T01:01:52;6.95;;;5.22;;
1014;SDS011;8170;48.118;11.628;2022-11-02T01:02:58;8.10;;;5.28;;
1014;SDS011;8170;48.118;11.628;2022-11-02T01:04:01;9.43;;;5.63;;
1014;SDS011;8170;48.118;11.628;2022-11-02T01:05:04;7.53;;;6.05;;
1014;SDS011;8170;48.118;11.628;2022-11-02T01:06:08;5.90;;;5.18;;
1014;SDS011;8170;48.118;11.628;2022-11-02T01:07:14;8.68;;;6.00;;
1014;SDS011;8170;48.118;11.628;2022-11-02T01:08:16;7.88;;;5.20;;
1014;SDS011;8170;48.118;11.628;2022-11-02T01:09:19;6.88;;;4.55;;
1014;SDS011;8170;48.118;11.628;2022-11-02T01:10:22;7.57;;;5.55;;
1014;SDS011;8170;48.118;11.628;2022-11-02T01:11:26;7.65;;;5.25;;
1014;SDS011;8170;48.118;11.628;2022-11-02T01:12:28;6.22;;;4.97;;
1014;SDS011;8170;48.118;11.628;2022-11-02T01:13:31;8.35;;;5.97;;
1014;SDS011;8170;48.118;11.628;2022-11-02T01:14:33;5.78;;;4.50;;
1014;SDS011;8170;48.118;11.628;2022-11-02T01:15:36;7.78;;;5.32;;
1014;SDS011;8170;48.118;11.628;2022-11-02T01:16:40;7.75;;;5.00;;
1014;SDS011;8170;48.118;11.628;2022-11-02T01:17:42;6.47;;;5.10;;
1014;SDS011;8170;48.118;11.628;2022-11-02T01:18:45;8.88;;;5.45;;
1014;SDS011;8170;48.118;11.628;2022-11-02T01:19:51;6.35;;;4.97;;
1014;SDS011;8170;48.118;11.628;2022-11-02T01:20:55;6.88;;;4.40;;
1014;SDS011;8170;48.118;11.628;2022-11-02T01:21:57;7.88;;;4.93;;
1014;SDS011;8170;48.118;11.628;2022-11-02T01:23:02;10.05;;;5.40;;
1014;SDS011;8170;48.118;11.628;2022-11-02T01:24:04;8.10;;;4.95;;
1014;SDS011;8170;48.118;11.628;2022-11-02T01:25:09;8.55;;;5.35;;
1014;SDS011;8170;48.118;11.628;2022-11-02T01:26:11;5.50;;;4.25;;
1014;SDS011;8170;48.118;11.628;2022-11-02T01:27:15;7.15;;;4.72;;
1014;SDS011;8170;48.118;11.628;2022-11-02T01:28:18;6.15;;;4.88;;
1014;SDS011;8170;48.118;11.628;2022-11-02T01:29:21;6.53;;;4.80;;
1014;SDS011;8170;48.118;11.628;2022-11-02T01:30:24;6.45;;;4.97;;
1014;SDS011;8170;48.118;11.628;2022-11-02T01:31:27;6.05;;;4.60;;
1014;SDS011;8170;48.118;11.628;2022-11-02T01:32:29;9.45;;;4.75;;
1014;SDS011;8170;48.118;11.628;2022-11-02T01:33:32;6.28;;;5.13;;
1014;SDS011;8170;48.118;11.628;2022-11-02T01:34:35;6.88;;;4.78;;
1014;SDS011;8170;48.118;11.628;2022-11-02T01:35:38;6.75;;;4.75;;
1014;SDS011;8170;48.118;11.628;2022-11-02T01:36:40;4.88;;;4.30;;
1014;SDS011;8170;48.118;11.628;2022-11-02T01:37:46;6.95;;;4.95;;
1014;SDS011;8170;48.118;11.628;2022-11-02T01:38:49;6.53;;;4.10;;
1014;SDS011;8170;48.118;11.628;2022-11-02T01:39:52;8.38;;;4.38;;
1014;SDS011;8170;48.118;11.628;2022-11-02T01:40:55;4.63;;;4.00;;
1014;SDS011;8170;48.118;11.628;2022-11-02T01:41:58;8.88;;;4.90;;
1014;SDS011;8170;48.118;11.628;2022-11-02T01:44:27;6.15;;;4.30;;
1014;SDS011;8170;48.118;11.628;2022-11-02T01:45:31;9.05;;;5.00;;
1014;SDS011;8170;48.118;11.628;2022-11-02T01:46:35;5.65;;;4.10;;
1014;SDS011;8170;48.118;11.628;2022-11-02T01:47:41;6.30;;;4.75;;
1014;SDS011;8170;48.118;11.628;2022-11-02T01:48:48;7.35;;;4.35;;
1014;SDS011;8170;48.118;11.628;2022-11-02T01:49:54;8.00;;;4.82;;
1014;SDS011;8170;48.118;11.628;2022-11-02T01:51:03;6.10;;;4.10;;
1014;SDS011;8170;48.118;11.628;2022-11-02T01:52:10;6.03;;;4.55;;
1014;SDS011;8170;48.118;11.628;2022-11-02T01:53:16;5.30;;;4.32;;
1014;SDS011;8170;48.118;11.628;2022-11-02T01:54:21;5.47;;;4.25;;
1014;SDS011;8170;48.118;11.628;2022-11-02T01:55:28;6.13;;;4.22;;
1014;SDS011;8170;48.118;11.628;2022-11-02T01:56:32;7.30;;;4.18;;
1014;SDS011;8170;48.118;11.628;2022-11-02T01:57:37;8.65;;;4.53;;
1014;SDS011;8170;48.118;11.628;2022-11-02T01:58:42;6.38;;;4.07;;
1014;SDS011;8170;48.118;11.628;2022-11-02T01:59:50;5.65;;;3.80;;
1014;SDS011;8170;48.118;11.628;2022-11-02T02:00:56;5.53;;;4.30;;
1014;SDS011;8170;48.118;11.628;2022-11-02T02:01:59;4.40;;;3.97;;
1014;SDS011;8170;48.118;11.628;2022-11-02T02:03:08;5.60;;;4.60;;
1014;SDS011;8170;48.118;11.628;2022-11-02T02:04:19;7.80;;;4.30;;
1014;SDS011;8170;48.118;11.628;2022-11-02T02:05:23;7.72;;;4.75;;
1014;SDS011;8170;48.118;11.628;2022-11-02T02:06:27;5.85;;;4.68;;
1014;SDS011;8170;48.118;11.628;2022-11-02T02:07:35;7.35;;;5.18;;
1014;SDS011;8170;48.118;11.628;2022-11-02T02:08:42;5.75;;;4.57;;
1014;SDS011;8170;48.118;11.628;2022-11-02T02:09:49;8.02;;;5.85;;
1014;SDS011;8170;48.118;11.628;2022-11-02T02:10:55;7.88;;;6.00;;
1014;SDS011;8170;48.118;11.628;2022-11-02T02:11:59;8.95;;;4.90;;
1014;SDS011;8170;48.118;11.628;2022-11-02T02:13:02;5.15;;;4.20;;
1014;SDS011;8170;48.118;11.628;2022-11-02T02:14:07;5.50;;;3.83;;
1014;SDS011;8170;48.118;11.628;2022-11-02T02:15:19;6.70;;;4.38;;
1014;SDS011;8170;48.118;11.628;2022-11-02T02:16:31;5.65;;;4.05;;
1014;SDS011;8170;48.118;11.628;2022-11-02T02:17:49;8.35;;;5.07;;
1014;SDS011;8170;48.118;11.628;2022-11-02T02:18:57;7.40;;;4.65;;
1014;SDS011;8170;48.118;11.628;2022-11-02T02:20:08;7.70;;;4.70;;
1014;SDS011;8170;48.118;11.628;2022-11-02T02:21:22;5.47;;;4.30;;
1014;SDS011;8170;48.118;11.628;2022-11-02T02:22:42;5.30;;;4.25;;
1014;SDS011;8170;48.118;11.628;2022-11-02T02:24:10;8.10;;;5.20;;
1014;SDS011;8170;48.118;11.628;2022-11-02T02:25:34;10.75;;;4.70;;
1014;SDS011;8170;48.118;11.628;2022-11-02T02:27:03;5.25;;;3.78;;
1014;SDS011;8170;48.118;11.628;2022-11-02T02:28:15;7.90;;;4.30;;
1014;SDS011;8170;48.118;11.628;2022-11-02T02:29:21;5.38;;;4.57;;
1014;SDS011;8170;48.118;11.628;2022-11-02T02:30:30;6.70;;;4.18;;
1014;SDS011;8170;48.118;11.628;2022-11-02T02:31:42;7.55;;;5.03;;
1014;SDS011;8170;48.118;11.628;2022-11-02T02:32:50;6.22;;;4.57;;
1014;SDS011;8170;48.118;11.628;2022-11-02T02:33:59;6.15;;;4.60;;
1014;SDS011;8170;48.118;11.628;2022-11-02T02:35:10;5.72;;;4.30;;
1014;SDS011;8170;48.118;11.628;2022-11-02T02:36:19;7.72;;;4.70;;
1014;SDS011;8170;48.118;11.628;2022-11-02T02:37:28;6.68;;;5.18;;
1014;SDS011;8170;48.118;11.628;2022-11-02T02:38:40;5.18;;;3.97;;
1014;SDS011;8170;48.118;11.628;2022-11-02T02:39:48;7.30;;;4.80;;
1014;SDS011;8170;48.118;11.628;2022-11-02T02:41:01;6.10;;;4.45;;
1014;SDS011;8170;48.118;11.628;2022-11-02T02:42:11;8.75;;;5.55;;
1014;SDS011;8170;48.118;11.628;2022-11-02T02:43:26;6.63;;;4.32;;
1014;SDS011;8170;48.118;11.628;2022-11-02T02:44:33;5.75;;;4.30;;
1014;SDS011;8170;48.118;11.628;2022-11-02T02:45:40;4.85;;;4.28;;
1014;SDS011;8170;48.118;11.628;2022-11-02T02:46:48;4.78;;;3.75;;
1014;SDS011;8170;48.118;11.628;2022-11-02T02:47:58;6.28;;;4.93;;
1014;SDS011;8170;48.118;11.628;2022-11-02T02:49:05;4.75;;;3.50;;
1014;SDS011;8170;48.118;11.628;2022-11-02T02:50:13;7.85;;;4.30;;
1014;SDS011;8170;48.118;11.628;2022-11-02T02:51:21;7.07;;;5.10;;
1014;SDS011;8170;48.118;11.628;2022-11-02T02:52:29;7.15;;;4.80;;
1014;SDS011;8170;48.118;11.628;2022-11-02T02:53:37;8.23;;;4.47;;
1014;SDS011;8170;48.118;11.628;2022-11-02T02:54:44;5.68;;;4.07;;
1014;SDS011;8170;48.118;11.628;2022-11-02T02:55:48;11.07;;;5.15;;
1014;SDS011;8170;48.118;11.628;2022-11-02T02:56:54;6.30;;;4.32;;
1014;SDS011;8170;48.118;11.628;2022-11-02T02:58:01;5.07;;;4.53;;
1014;SDS011;8170;48.118;11.628;2022-11-02T02:59:09;6.95;;;4.40;;
1014;SDS011;8170;48.118;11.628;2022-11-02T03:00:17;5.13;;;4.40;;
1014;SDS011;8170;48.118;11.628;2022-11-02T03:01:22;6.97;;;4.70;;
1014;SDS011;8170;48.118;11.628;2022-11-02T03:02:27;7.90;;;5.28;;
1014;SDS011;8170;48.118;11.628;2022-11-02T03:03:34;6.07;;;4.28;;
1014;SDS011;8170;48.118;11.628;2022-11-02T03:04:36;5.00;;;4.00;;
1014;SDS011;8170;48.118;11.628;2022-11-02T03:05:40;7.20;;;4.60;;
1014;SDS011;8170;48.118;11.628;2022-11-02T03:06:44;6.40;;;5.07;;
1014;SDS011;8170;48.118;11.628;2022-11-02T03:07:52;5.00;;;3.85;;
1014;SDS011;8170;48.118;11.628;2022-11-02T03:09:06;6.00;;;3.95;;
1014;SDS011;8170;48.118;11.628;2022-11-02T03:10:20;6.07;;;4.22;;
1014;SDS011;8170;48.118;11.628;2022-11-02T03:11:29;5.68;;;3.50;;
1014;SDS011;8170;48.118;11.628;2022-11-02T03:12:36;7.03;;;4.18;;
1014;SDS011;8170;48.118;11.628;2022-11-02T03:13:58;5.68;;;3.78;;
1014;SDS011;8170;48.118;11.628;2022-11-02T03:15:15;5.70;;;3.58;;
1014;SDS011;8170;48.118;11.628;2022-11-02T03:16:26;8.32;;;4.80;;
1014;SDS011;8170;48.118;11.628;2022-11-02T03:17:44;6.57;;;3.85;;
1014;SDS011;8170;48.118;11.628;2022-11-02T03:19:00;3.42;;;3.13;;
1014;SDS011;8170;48.118;11.628;2022-11-02T03:20:14;4.63;;;3.83;;
1014;SDS011;8170;48.118;11.628;2022-11-02T03:21:26;5.85;;;3.58;;
1014;SDS011;8170;48.118;11.628;2022-11-02T03:22:33;7.95;;;4.35;;
1014;SDS011;8170;48.118;11.628;2022-11-02T03:23:54;3.83;;;2.80;;
1014;SDS011;8170;48.118;11.628;2022-11-02T03:25:06;5.47;;;3.55;;
1014;SDS011;8170;48.118;11.628;2022-11-02T03:26:16;4.47;;;3.13;;
1014;SDS011;8170;48.118;11.628;2022-11-02T03:27:27;6.28;;;3.40;;
1014;SDS011;8170;48.118;11.628;2022-11-02T03:28:41;4.47;;;3.15;;
1014;SDS011;8170;48.118;11.628;2022-11-02T03:31:44;5.13;;;3.60;;
1014;SDS011;8170;48.118;11.628;2022-11-02T03:32:55;3.33;;;2.50;;
1014;SDS011;8170;48.118;11.628;2022-11-02T03:34:09;6.35;;;3.90;;
1014;SDS011;8170;48.118;11.628;2022-11-02T03:35:20;4.75;;;3.35;;
1014;SDS011;8170;48.118;11.628;2022-11-02T03:36:29;6.20;;;3.08;;
1014;SDS011;8170;48.118;11.628;2022-11-02T03:37:35;6.93;;;3.20;;
1014;SDS011;8170;48.118;11.628;2022-11-02T03:38:44;4.53;;;3.45;;
1014;SDS011;8170;48.118;11.628;2022-11-02T03:39:50;4.53;;;3.80;;
1014;SDS011;8170;48.118;11.628;2022-11-02T03:40:56;5.60;;;3.15;;
1014;SDS011;8170;48.118;11.628;2022-11-02T03:42:02;4.70;;;3.10;;
1014;SDS011;8170;48.118;11.628;2022-11-02T03:43:11;3.92;;;3.40;;
1014;SDS011;8170;48.118;11.628;2022-11-02T03:44:16;3.88;;;2.72;;
1014;SDS011;8170;48.118;11.628;2022-11-02T03:45:25;4.60;;;3.38;;
1014;SDS011;8170;48.118;11.628;2022-11-02T03:46:36;4.88;;;2.90;;
1014;SDS011;8170;48.118;11.628;2022-11-02T03:47:42;10.07;;;4.15;;
1014;SDS011;8170;48.118;11.628;2022-11-02T03:48:47;8.63;;;3.85;;
1014;SDS011;8170;48.118;11.628;2022-11-02T03:49:53;3.72;;;3.28;;
1014;SDS011;8170;48.118;11.628;2022-11-02T03:50:59;7.78;;;4.03;;
1014;SDS011;8170;48.118;11.628;2022-11-02T03:52:07;6.20;;;3.85;;
1014;SDS011;8170;48.118;11.628;2022-11-02T03:53:15;8.20;;;4.28;;
1014;SDS011;8170;48.118;11.628;2022-11-02T03:54:24;5.72;;;3.90;;
1014;SDS011;8170;48.118;11.628;2022-11-02T03:55:40;6.10;;;3.65;;
1014;SDS011;8170;48.118;11.628;2022-11-02T03:56:48;6.18;;;3.83;;
1014;SDS011;8170;48.118;11.628;2022-11-02T03:57:53;8.90;;;4.35;;
1014;SDS011;8170;48.118;11.628;2022-11-02T03:59:01;4.85;;;4.28;;
1014;SDS011;8170;48.118;11.628;2022-11-02T04:00:05;7.82;;;4.70;;
1014;SDS011;8170;48.118;11.628;2022-11-02T04:01:14;5.32;;;3.97;;
1014;SDS011;8170;48.118;11.628;2022-11-02T04:02:23;4.18;;;3.50;;
1014;SDS011;8170;48.118;11.628;2022-11-02T04:03:27;4.50;;;3.45;;
1014;SDS011;8170;48.118;11.628;2022-11-02T04:04:50;4.88;;;4.00;;
1014;SDS011;8170;48.118;11.628;2022-11-02T04:05:58;5.75;;;4.32;;
1014;SDS011;8170;48.118;11.628;2022-11-02T04:07:05;4.43;;;3.72;;
1014;SDS011;8170;48.118;11.628;2022-11-02T04:08:10;8.02;;;3.65;;
1014;SDS011;8170;48.118;11.628;2022-11-02T04:09:23;4.68;;;3.30;;
1014;SDS011;8170;48.118;11.628;2022-11-02T04:10:27;5.57;;;4.18;;
1014;SDS011;8170;48.118;11.628;2022-11-02T04:11:30;5.88;;;4.47;;
1014;SDS011;8170;48.118;11.628;2022-11-02T04:12:53;9.18;;;4.47;;
1014;SDS011;8170;48.118;11.628;2022-11-02T04:14:14;5.90;;;3.50;;
1014;SDS011;8170;48.118;11.628;2022-11-02T04:15:36;6.35;;;4.75;;
1014;SDS011;8170;48.118;11.628;2022-11-02T04:16:47;7.07;;;4.20;;
1014;SDS011;8170;48.118;11.628;2022-11-02T04:17:58;7.95;;;4.30;;
1014;SDS011;8170;48.118;11.628;2022-11-02T04:19:18;7.60;;;4.45;;
1014;SDS011;8170;48.118;11.628;2022-11-02T04:20:35;7.40;;;4.97;;
1014;SDS011;8170;48.118;11.628;2022-11-02T04:21:43;9.38;;;4.30;;
1014;SDS011;8170;48.118;11.628;2022-11-02T04:23:07;6.60;;;4.20;;
1014;SDS011;8170;48.118;11.628;2022-11-02T04:24:30;6.00;;;4.90;;
1014;SDS011;8170;48.118;11.628;2022-11-02T04:25:54;6.07;;;3.97;;
1014;SDS011;8170;48.118;11.628;2022-11-02T04:27:08;6.25;;;4.50;;
1014;SDS011;8170;48.118;11.628;2022-11-02T04:28:19;7.97;;;4.20;;
1014;SDS011;8170;48.118;11.628;2022-11-02T04:29:34;7.78;;;4.10;;
1014;SDS011;8170;48.118;11.628;2022-11-02T04:30:42;4.78;;;4.10;;
1014;SDS011;8170;48.118;11.628;2022-11-02T04:31:54;5.25;;;3.85;;
1014;SDS011;8170;48.118;11.628;2022-11-02T04:33:07;8.13;;;4.40;;
1014;SDS011;8170;48.118;11.628;2022-11-02T04:34:56;6.00;;;4.43;;
1014;SDS011;8170;48.118;11.628;2022-11-02T04:36:06;4.55;;;3.33;;
1014;SDS011;8170;48.118;11.628;2022-11-02T04:37:14;4.57;;;4.10;;
1014;SDS011;8170;48.118;11.628;2022-11-02T04:38:34;8.20;;;4.82;;
1014;SDS011;8170;48.118;11.628;2022-11-02T04:39:53;6.68;;;4.55;;
1014;SDS011;8170;48.118;11.628;2022-11-02T04:40:57;5.90;;;5.30;;
1014;SDS011;8170;48.118;11.628;2022-11-02T04:42:15;7.47;;;4.70;;
1014;SDS011;8170;48.118;11.628;2022-11-02T04:43:29;6.88;;;4.65;;
1014;SDS011;8170;48.118;11.628;2022-11-02T04:44:38;7.82;;;4.43;;
1014;SDS011;8170;48.118;11.628;2022-11-02T04:45:56;8.82;;;4.75;;
1014;SDS011;8170;48.118;11.628;2022-11-02T04:46:58;5.20;;;4.70;;
1014;SDS011;8170;48.118;11.628;2022-11-02T04:48:08;6.60;;;3.90;;
1014;SDS011;8170;48.118;11.628;2022-11-02T04:49:14;5.95;;;4.80;;
1014;SDS011;8170;48.118;11.628;2022-11-02T04:50:17;5.10;;;4.30;;
1014;SDS011;8170;48.118;11.628;2022-11-02T04:51:23;4.85;;;4.28;;
1014;SDS011;8170;48.118;11.628;2022-11-02T04:52:27;6.15;;;5.20;;
1014;SDS011;8170;48.118;11.628;2022-11-02T04:53:34;8.30;;;4.57;;
1014;SDS011;8170;48.118;11.628;2022-11-02T04:54:47;5.10;;;4.60;;
1014;SDS011;8170;48.118;11.628;2022-11-02T04:55:57;6.20;;;3.90;;
1014;SDS011;8170;48.118;11.628;2022-11-02T04:57:15;6.13;;;4.40;;
1014;SDS011;8170;48.118;11.628;2022-11-02T04:58:18;5.13;;;4.63;;
1014;SDS011;8170;48.118;11.628;2022-11-02T04:59:24;4.70;;;4.07;;
1014;SDS011;8170;48.118;11.628;2022-11-02T05:00:26;5.00;;;4.07;;
1014;SDS011;8170;48.118;11.628;2022-11-02T05:01:33;8.82;;;5.18;;
1014;SDS011;8170;48.118;11.628;2022-11-02T05:02:37;7.57;;;4.47;;
1014;SDS011;8170;48.118;11.628;2022-11-02T05:03:42;4.57;;;3.70;;
1014;SDS011;8170;48.118;11.628;2022-11-02T05:04:46;3.72;;;3.33;;
1014;SDS011;8170;48.118;11.628;2022-11-02T05:05:53;4.35;;;3.95;;
1014;SDS011;8170;48.118;11.628;2022-11-02T05:07:01;7.30;;;4.40;;
1014;SDS011;8170;48.118;11.628;2022-11-02T05:08:17;6.50;;;4.60;;
1014;SDS011;8170;48.118;11.628;2022-11-02T05:09:29;3.70;;;3.40;;
1014;SDS011;8170;48.118;11.628;2022-11-02T05:10:46;4.53;;;3.60;;
1014;SDS011;8170;48.118;11.628;2022-11-02T05:12:15;5.70;;;4.18;;
1014;SDS011;8170;48.118;11.628;2022-11-02T05:13:18;8.15;;;4.93;;
1014;SDS011;8170;48.118;11.628;2022-11-02T05:14:32;4.75;;;4.07;;
1014;SDS011;8170;48.118;11.628;2022-11-02T05:15:43;4.90;;;3.83;;
1014;SDS011;8170;48.118;11.628;2022-11-02T05:16:45;6.10;;;3.88;;
1014;SDS011;8170;48.118;11.628;2022-11-02T05:17:52;5.65;;;4.20;;
1014;SDS011;8170;48.118;11.628;2022-11-02T05:19:01;5.65;;;4.00;;
1014;SDS011;8170;48.118;11.628;2022-11-02T05:20:18;5.95;;;4.43;;
1014;SDS011;8170;48.118;11.628;2022-11-02T05:21:35;7.05;;;5.30;;
1014;SDS011;8170;48.118;11.628;2022-11-02T05:22:43;6.25;;;4.57;;
1014;SDS011;8170;48.118;11.628;2022-11-02T05:23:49;8.77;;;4.68;;
1014;SDS011;8170;48.118;11.628;2022-11-02T05:24:51;7.80;;;4.65;;
1014;SDS011;8170;48.118;11.628;2022-11-02T05:25:56;7.75;;;4.60;;
1014;SDS011;8170;48.118;11.628;2022-11-02T05:27:05;7.63;;;4.55;;
1014;SDS011;8170;48.118;11.628;2022-11-02T05:28:13;6.05;;;4.13;;
1014;SDS011;8170;48.118;11.628;2022-11-02T05:29:18;7.07;;;5.53;;
1014;SDS011;8170;48.118;11.628;2022-11-02T05:30:29;7.65;;;4.97;;
1014;SDS011;8170;48.118;11.628;2022-11-02T05:31:45;8.10;;;4.70;;
1014;SDS011;8170;48.118;11.628;2022-11-02T05:32:48;7.25;;;4.32;;
1014;SDS011;8170;48.118;11.628;2022-11-02T05:33:58;5.18;;;4.38;;
1014;SDS011;8170;48.118;11.628;2022-11-02T05:35:06;7.60;;;4.47;;
1014;SDS011;8170;48.118;11.628;2022-11-02T05:36:13;7.00;;;4.80;;
1014;SDS011;8170;48.118;11.628;2022-11-02T05:37:19;6.13;;;4.03;;
1014;SDS011;8170;48.118;11.628;2022-11-02T05:38:25;5.80;;;3.72;;
1014;SDS011;8170;48.118;11.628;2022-11-02T05:39:31;5.75;;;3.80;;
1014;SDS011;8170;48.118;11.628;2022-11-02T05:40:34;6.22;;;4.13;;
1014;SDS011;8170;48.118;11.628;2022-11-02T05:41:56;6.28;;;4.40;;
1014;SDS011;8170;48.118;11.628;2022-11-02T05:43:03;5.47;;;4.40;;
1014;SDS011;8170;48.118;11.628;2022-11-02T05:44:07;5.90;;;4.18;;
1014;SDS011;8170;48.118;11.628;2022-11-02T05:45:12;5.65;;;4.03;;
1014;SDS011;8170;48.118;11.628;2022-11-02T05:46:17;7.10;;;4.68;;
1014;SDS011;8170;48.118;11.628;2022-11-02T05:47:23;6.10;;;4.78;;
1014;SDS011;8170;48.118;11.628;2022-11-02T05:48:25;7.05;;;4.93;;
1014;SDS011;8170;48.118;11.628;2022-11-02T05:49:37;7.63;;;5.40;;
1014;SDS011;8170;48.118;11.628;2022-11-02T05:50:57;6.50;;;4.75;;
1014;SDS011;8170;48.118;11.628;2022-11-02T05:52:05;5.28;;;4.70;;
1014;SDS011;8170;48.118;11.628;2022-11-02T05:53:16;6.55;;;4.82;;
1014;SDS011;8170;48.118;11.628;2022-11-02T05:54:18;5.90;;;4.68;;
1014;SDS011;8170;48.118;11.628;2022-11-02T05:55:25;8.88;;;4.30;;
1014;SDS011;8170;48.118;11.628;2022-11-02T05:56:27;7.72;;;4.10;;
1014;SDS011;8170;48.118;11.628;2022-11-02T05:57:34;6.20;;;4.65;;
1014;SDS011;8170;48.118;11.628;2022-11-02T05:58:36;6.40;;;4.20;;
1014;SDS011;8170;48.118;11.628;2022-11-02T05:59:47;7.00;;;4.10;;
1014;SDS011;8170;48.118;11.628;2022-11-02T06:00:57;5.32;;;4.40;;
1014;SDS011;8170;48.118;11.628;2022-11-02T06:02:03;4.93;;;3.80;;
1014;SDS011;8170;48.118;11.628;2022-11-02T06:03:06;5.00;;;3.83;;
1014;SDS011;8170;48.118;11.628;2022-11-02T06:04:14;4.40;;;3.80;;
1014;SDS011;8170;48.118;11.628;2022-11-02T06:05:28;11.48;;;3.95;;
1014;SDS011;8170;48.118;11.628;2022-11-02T06:06:34;6.63;;;4.10;;
1014;SDS011;8170;48.118;11.628;2022-11-02T06:07:38;7.93;;;4.75;;
1014;SDS011;8170;48.118;11.628;2022-11-02T06:08:40;8.75;;;4.75;;
1014;SDS011;8170;48.118;11.628;2022-11-02T06:09:44;6.50;;;5.20;;
1014;SDS011;8170;48.118;11.628;2022-11-02T06:10:46;7.07;;;5.32;;
1014;SDS011;8170;48.118;11.628;2022-11-02T06:11:49;7.20;;;4.55;;
1014;SDS011;8170;48.118;11.628;2022-11-02T06:12:54;5.15;;;4.63;;
1014;SDS011;8170;48.118;11.628;2022-11-02T06:13:58;7.28;;;5.30;;
1014;SDS011;8170;48.118;11.628;2022-11-02T06:15:05;5.97;;;5.05;;
1014;SDS011;8170;48.118;11.628;2022-11-02T06:16:16;8.77;;;5.55;;
1014;SDS011;8170;48.118;11.628;2022-11-02T06:17:23;7.10;;;4.85;;
1014;SDS011;8170;48.118;11.628;2022-11-02T06:18:27;5.13;;;4.60;;
1014;SDS011;8170;48.118;11.628;2022-11-02T06:19:35;5.10;;;4.60;;
1014;SDS011;8170;48.118;11.628;2022-11-02T06:20:44;7.28;;;4.55;;
1014;SDS011;8170;48.118;11.628;2022-11-02T06:21:57;4.40;;;4.00;;
1014;SDS011;8170;48.118;11.628;2022-11-02T06:23:03;6.07;;;4.97;;
1014;SDS011;8170;48.118;11.628;2022-11-02T06:24:06;7.68;;;4.75;;
1014;SDS011;8170;48.118;11.628;2022-11-02T06:25:13;5.00;;;3.95;;
1014;SDS011;8170;48.118;11.628;2022-11-02T06:26:15;8.35;;;4.82;;
1014;SDS011;8170;48.118;11.628;2022-11-02T06:27:27;6.18;;;4.60;;
1014;SDS011;8170;48.118;11.628;2022-11-02T06:28:34;7.45;;;4.82;;
1014;SDS011;8170;48.118;11.628;2022-11-02T06:29:37;4.85;;;4.05;;
1014;SDS011;8170;48.118;11.628;2022-11-02T06:30:46;7.32;;;4.53;;
1014;SDS011;8170;48.118;11.628;2022-11-02T06:31:56;6.15;;;3.88;;
1014;SDS011;8170;48.118;11.628;2022-11-02T06:33:02;5.90;;;4.20;;
1014;SDS011;8170;48.118;11.628;2022-11-02T06:34:07;8.52;;;6.45;;
1014;SDS011;8170;48.118;11.628;2022-11-02T06:35:14;9.40;;;5.20;;
1014;SDS011;8170;48.118;11.628;2022-11-02T06:36:26;5.85;;;5.25;;
1014;SDS011;8170;48.118;11.628;2022-11-02T06:37:32;8.40;;;4.70;;
1014;SDS011;8170;48.118;11.628;2022-11-02T06:38:35;7.20;;;5.30;;
1014;SDS011;8170;48.118;11.628;2022-11-02T06:39:45;9.05;;;5.00;;
1014;SDS011;8170;48.118;11.628;2022-11-02T06:40:57;7.20;;;4.45;;
1014;SDS011;8170;48.118;11.628;2022-11-02T06:42:05;5.05;;;4.38;;
1014;SDS011;8170;48.118;11.628;2022-11-02T06:43:07;7.35;;;4.53;;
1014;SDS011;8170;48.118;11.628;2022-11-02T06:44:17;7.55;;;4.80;;
1014;SDS011;8170;48.118;11.628;2022-11-02T06:45:21;8.05;;;4.85;;
1014;SDS011;8170;48.118;11.628;2022-11-02T06:46:23;7.97;;;4.13;;
1014;SDS011;8170;48.118;11.628;2022-11-02T06:47:29;6.53;;;4.57;;
1014;SDS011;8170;48.118;11.628;2022-11-02T06:48:35;5.90;;;4.47;;
1014;SDS011;8170;48.118;11.628;2022-11-02T06:49:48;5.18;;;4.15;;
1014;SDS011;8170;48.118;11.628;2022-11-02T06:50:52;4.55;;;3.88;;
1014;SDS011;8170;48.118;11.628;2022-11-02T06:51:57;5.57;;;4.68;;
1014;SDS011;8170;48.118;11.628;2022-11-02T06:53:06;4.90;;;3.85;;
1014;SDS011;8170;48.118;11.628;2022-11-02T06:54:14;5.80;;;4.90;;
1014;SDS011;8170;48.118;11.628;2022-11-02T06:55:18;7.80;;;5.00;;
1014;SDS011;8170;48.118;11.628;2022-11-02T06:56:22;5.00;;;4.40;;
1014;SDS011;8170;48.118;11.628;2022-11-02T06:57:25;5.88;;;4.43;;
1014;SDS011;8170;48.118;11.628;2022-11-02T06:58:34;5.47;;;3.90;;
1014;SDS011;8170;48.118;11.628;2022-11-02T06:59:37;6.90;;;4.43;;
1014;SDS011;8170;48.118;11.628;2022-11-02T07:00:43;6.43;;;4.20;;
1014;SDS011;8170;48.118;11.628;2022-11-02T07:02:07;9.82;;;4.20;;
1014;SDS011;8170;48.118;11.628;2022-11-02T07:03:16;5.38;;;4.85;;
1014;SDS011;8170;48.118;11.628;2022-11-02T07:04:23;6.70;;;5.43;;
1014;SDS011;8170;48.118;11.628;2022-11-02T07:05:27;4.90;;;4.45;;
1014;SDS011;8170;48.118;11.628;2022-11-02T07:06:36;5.63;;;4.30;;
1014;SDS011;8170;48.118;11.628;2022-11-02T07:07:44;5.72;;;3.70;;
1014;SDS011;8170;48.118;11.628;2022-11-02T07:08:46;6.85;;;3.95;;
1014;SDS011;8170;48.118;11.628;2022-11-02T07:09:54;5.88;;;3.65;;
1014;SDS011;8170;48.118;11.628;2022-11-02T07:10:56;7.68;;;4.38;;
1014;SDS011;8170;48.118;11.628;2022-11-02T07:12:00;6.88;;;4.00;;
1014;SDS011;8170;48.118;11.628;2022-11-02T07:13:04;7.53;;;3.60;;
1014;SDS011;8170;48.118;11.628;2022-11-02T07:14:10;12.25;;;4.68;;
1014;SDS011;8170;48.118;11.628;2022-11-02T07:15:15;5.53;;;3.42;;
1014;SDS011;8170;48.118;11.628;2022-11-02T07:16:18;6.57;;;4.10;;
1014;SDS011;8170;48.118;11.628;2022-11-02T07:17:24;7.55;;;4.97;;
1014;SDS011;8170;48.118;11.628;2022-11-02T07:18:35;4.32;;;3.22;;